Gatewood, West Virginia
Current Conditions -  °F | °C
As of 8:51 AM on Thursday 29 Jan 2015 (Local Time) from KBKW Reporting Station
Clear Clear  
Wind Chill: 23°   Ceiling: Unl
Heat Index: 33°   Visibility: 10mi
Dew Point: 13°   Wind: 14mph
Humidity: 43%   Direction: 150°SSE
Pressure: 30.08"   Gusts: NA
Location:  38.0317°N, 81.0282°W
Report Text: KBKW 291351Z AUTO 15012KT 10SM CLR 01/M11 A3008 RMK AO2 SLP221 T00061106
Loading
Personal Weather Stations






























Interactive Weather Map New forecast layout! Learn more

10-Day Weather Forecast

Advertisements
Track Severe Weather on mobile